createdAt,value
2018-09-11T00:01:28.694Z,22.01
2018-09-11T00:03:58.899Z,21.98
2018-09-11T00:06:29.417Z,21.92
2018-09-11T00:09:00.355Z,21.95
2018-09-11T00:11:30.911Z,22.00
2018-09-11T00:14:01.429Z,21.94
2018-09-11T00:16:31.726Z,21.93
2018-09-11T00:19:02.319Z,21.90
2018-09-11T00:21:33.067Z,21.86
2018-09-11T00:24:04.040Z,21.89
2018-09-11T00:26:34.548Z,21.84
2018-09-11T00:29:05.129Z,21.82
2018-09-11T00:31:35.933Z,21.80
2018-09-11T00:34:06.427Z,21.81
2018-09-11T00:36:36.733Z,21.79
2018-09-11T00:39:08.329Z,21.75
2018-09-11T00:41:38.971Z,21.73
2018-09-11T00:44:10.514Z,21.76
2018-09-11T00:46:41.032Z,21.80
2018-09-11T00:49:11.791Z,21.76
2018-09-11T00:51:42.384Z,21.82
2018-09-11T00:54:13.051Z,21.79
2018-09-11T00:56:43.512Z,21.77
2018-09-11T00:59:14.542Z,21.80
2018-09-11T01:01:44.747Z,21.79
2018-09-11T01:04:15.301Z,21.79
2018-09-11T01:06:46.289Z,21.79
2018-09-11T01:09:16.889Z,21.90
2018-09-11T01:11:47.524Z,21.94
2018-09-11T01:14:18.778Z,22.04
2018-09-11T01:16:49.078Z,22.12
2018-09-11T01:19:19.595Z,22.13
2018-09-11T01:21:50.083Z,22.14
2018-09-11T01:24:20.744Z,22.25
2018-09-11T01:26:51.265Z,22.25
2018-09-11T01:29:22.462Z,22.12
2018-09-11T01:31:53.059Z,21.98
2018-09-11T01:34:23.485Z,21.85
2018-09-11T01:36:54.375Z,21.93
2018-09-11T01:39:25.194Z,21.91
2018-09-11T01:41:55.844Z,21.95
2018-09-11T01:44:26.516Z,22.01
2018-09-11T01:46:56.987Z,21.97
2018-09-11T01:49:27.891Z,21.98
2018-09-11T01:51:58.147Z,22.02
2018-09-11T01:54:28.817Z,22.03
2018-09-11T01:56:59.355Z,22.02
2018-09-11T01:59:29.897Z,22.08
2018-09-11T02:02:00.087Z,22.14
2018-09-11T02:04:30.277Z,22.16
2018-09-11T02:07:00.496Z,22.27
2018-09-11T02:09:30.979Z,22.32
2018-09-11T02:12:01.298Z,22.48
2018-09-11T02:14:31.992Z,22.22
2018-09-11T02:17:02.680Z,22.24
2018-09-11T02:19:33.267Z,22.13
2018-09-11T02:22:04.025Z,21.98
2018-09-11T02:24:34.303Z,22.10
2018-09-11T02:27:05.878Z,21.35
2018-09-11T02:29:36.371Z,21.75
2018-09-11T02:32:06.916Z,21.65
2018-09-11T02:34:37.445Z,21.54
2018-09-11T02:37:07.941Z,21.54
2018-09-11T02:39:38.151Z,21.54
2018-09-11T02:42:08.420Z,21.49
2018-09-11T02:44:38.995Z,21.59
2018-09-11T02:47:13.478Z,21.60
2018-09-11T02:49:44.075Z,21.62
2018-09-11T02:52:14.595Z,21.61
2018-09-11T02:54:45.448Z,21.67
2018-09-11T02:57:15.906Z,21.86
2018-09-11T02:59:46.483Z,21.84
2018-09-11T03:02:17.092Z,22.01
2018-09-11T03:04:47.322Z,21.89
2018-09-11T03:07:17.816Z,21.77
2018-09-11T03:09:48.573Z,21.68
2018-09-11T03:12:19.092Z,21.65
2018-09-11T03:14:49.629Z,21.58
2018-09-11T03:17:20.172Z,21.53
2018-09-11T03:19:50.607Z,21.57
2018-09-11T03:22:20.895Z,21.59
2018-09-11T03:24:51.559Z,21.60
2018-09-11T03:27:22.148Z,21.63
2018-09-11T03:29:52.773Z,21.66
2018-09-11T03:32:23.318Z,21.62
2018-09-11T03:34:54.178Z,21.60
2018-09-11T03:37:25.043Z,21.60
2018-09-11T03:39:56.146Z,21.62
2018-09-11T03:42:26.919Z,21.62
2018-09-11T03:44:57.520Z,21.60
2018-09-11T03:47:28.047Z,21.64
2018-09-11T03:49:58.548Z,21.66
2018-09-11T03:52:29.121Z,21.65
2018-09-11T03:54:59.607Z,21.70
2018-09-11T03:57:30.093Z,21.68
2018-09-11T04:00:00.646Z,21.63
2018-09-11T04:02:32.103Z,21.62
2018-09-11T04:05:02.349Z,21.58
2018-09-11T04:07:32.625Z,21.60
2018-09-11T04:10:03.485Z,21.54
2018-09-11T04:12:34.298Z,21.53
2018-09-11T04:15:05.545Z,21.52
2018-09-11T04:17:42.316Z,21.51
2018-09-11T04:20:12.791Z,21.45
2018-09-11T04:22:44.092Z,21.53
2018-09-11T04:25:14.608Z,21.66
2018-09-11T04:27:51.528Z,21.69
2018-09-11T04:30:22.087Z,21.68
2018-09-11T04:32:52.553Z,21.72
2018-09-11T04:35:23.104Z,21.72
2018-09-11T04:37:53.965Z,21.77
2018-09-11T04:40:24.463Z,21.68
2018-09-11T04:42:55.174Z,21.70
2018-09-11T04:45:25.911Z,21.70
2018-09-11T04:47:56.564Z,21.68
2018-09-11T04:50:27.267Z,21.75
2018-09-11T04:52:57.760Z,21.71
2018-09-11T04:55:29.240Z,21.73
2018-09-11T04:58:00.092Z,21.82
2018-09-11T05:00:30.600Z,21.72
2018-09-11T05:03:01.166Z,21.77
2018-09-11T05:05:31.840Z,21.88
2018-09-11T05:08:02.499Z,21.92
2018-09-11T05:10:33.283Z,21.97
2018-09-11T05:13:03.920Z,22.03
2018-09-11T05:15:34.428Z,22.03
2018-09-11T05:18:04.709Z,22.01
2018-09-11T05:20:34.919Z,22.03
2018-09-11T05:23:05.692Z,21.96
2018-09-11T05:25:35.968Z,22.08
2018-09-11T05:28:06.529Z,22.15
2018-09-11T05:30:37.587Z,22.23
2018-09-11T05:33:08.637Z,21.78
2018-09-11T05:35:38.995Z,22.26
2018-09-11T05:38:10.152Z,22.29
2018-09-11T05:40:40.765Z,22.34
2018-09-11T05:43:11.332Z,22.40
2018-09-11T05:45:41.643Z,22.39
2018-09-11T05:48:11.902Z,22.42
2018-09-11T05:50:42.490Z,22.42
2018-09-11T05:53:13.286Z,22.60
2018-09-11T05:55:43.850Z,22.61
2018-09-11T05:58:14.437Z,22.67
2018-09-11T06:00:45.055Z,22.85
2018-09-11T06:03:15.708Z,22.83
2018-09-11T06:05:46.411Z,22.72
2018-09-11T06:08:17.075Z,22.80
2018-09-11T06:10:47.807Z,22.93
2018-09-11T06:13:19.329Z,22.93
2018-09-11T06:15:50.202Z,23.00
2018-09-11T06:18:21.037Z,23.01
2018-09-11T06:20:52.673Z,22.88
2018-09-11T06:23:31.936Z,22.97
2018-09-11T06:26:02.460Z,23.01
2018-09-11T06:28:33.038Z,23.00
2018-09-11T06:31:03.815Z,23.03
2018-09-11T06:33:35.633Z,23.12
2018-09-11T06:36:06.438Z,23.26
2018-09-11T06:38:37.091Z,23.24
2018-09-11T06:41:07.877Z,23.41
2018-09-11T06:43:38.508Z,23.67
2018-09-11T06:46:09.103Z,23.66
2018-09-11T06:48:39.389Z,23.85
2018-09-11T06:51:10.235Z,23.82
2018-09-11T06:53:41.048Z,23.89
2018-09-11T06:56:11.419Z,23.59
2018-09-11T06:58:43.172Z,24.02
2018-09-11T07:01:13.766Z,24.11
2018-09-11T07:03:44.117Z,24.27
2018-09-11T07:06:14.328Z,24.46
2018-09-11T07:08:44.875Z,24.26
2018-09-11T07:11:15.404Z,24.21
2018-09-11T07:13:45.669Z,24.24
2018-09-11T07:16:15.996Z,24.53
2018-09-11T07:18:46.647Z,24.52
2018-09-11T07:21:17.295Z,24.64
2018-09-11T07:23:47.789Z,24.60
2018-09-11T07:26:18.538Z,24.48
2018-09-11T07:28:49.048Z,24.46
2018-09-11T07:31:19.695Z,24.32
2018-09-11T07:33:51.101Z,24.66
2018-09-11T07:36:22.835Z,24.81
2018-09-11T07:38:53.652Z,24.84
2018-09-11T07:41:24.171Z,24.89
2018-09-11T07:43:54.595Z,24.96
2018-09-11T07:46:25.104Z,24.99
2018-09-11T07:48:55.907Z,24.96
2018-09-11T07:51:26.524Z,25.01
2018-09-11T07:53:57.155Z,25.14
2018-09-11T07:56:27.723Z,25.16
2018-09-11T07:58:58.229Z,25.40
2018-09-11T08:01:28.892Z,25.38
2018-09-11T08:03:59.657Z,25.50
2018-09-11T08:06:29.874Z,25.66
2018-09-11T08:09:00.447Z,25.91
2018-09-11T08:11:31.010Z,25.87
2018-09-11T08:14:01.314Z,25.60
2018-09-11T08:16:31.633Z,25.50
2018-09-11T08:19:02.446Z,25.48
2018-09-11T08:21:32.968Z,25.85
2018-09-11T08:24:03.476Z,25.86
2018-09-11T08:26:34.176Z,25.90
2018-09-11T08:29:05.023Z,26.03
2018-09-11T08:31:35.587Z,26.14
2018-09-11T08:34:06.321Z,26.06
2018-09-11T08:36:36.784Z,26.11
2018-09-11T08:39:09.713Z,26.14
2018-09-11T08:41:40.364Z,26.04
2018-09-11T08:44:11.046Z,25.95
2018-09-11T08:46:41.297Z,26.02
2018-09-11T08:49:12.237Z,26.04
2018-09-11T08:51:43.032Z,26.18
2018-09-11T08:54:13.727Z,26.58
2018-09-11T08:56:44.288Z,26.42
2018-09-11T08:59:14.607Z,26.87
2018-09-11T09:01:45.108Z,26.73
2018-09-11T09:04:15.820Z,26.73
2018-09-11T09:06:46.335Z,26.38
2018-09-11T09:09:16.837Z,26.38
2018-09-11T09:11:47.982Z,26.35
2018-09-11T09:14:18.736Z,26.58
2018-09-11T09:16:49.304Z,26.65
2018-09-11T09:19:19.944Z,26.73
2018-09-11T09:21:51.437Z,26.81
2018-09-11T09:24:21.759Z,27.22
2018-09-11T09:26:52.628Z,27.68
2018-09-11T09:29:23.152Z,27.58
2018-09-11T09:31:54.878Z,28.32
2018-09-11T09:34:25.472Z,28.61
2018-09-11T09:36:57.248Z,28.68
2018-09-11T09:39:28.460Z,28.51
2018-09-11T09:41:59.174Z,29.24
2018-09-11T09:44:29.811Z,28.44
2018-09-11T09:47:00.212Z,29.35
2018-09-11T09:49:30.747Z,30.27
2018-09-11T09:52:01.237Z,34.13
2018-09-11T09:54:31.726Z,35.65
2018-09-11T09:57:02.109Z,35.21
2018-09-11T09:59:32.812Z,36.18
2018-09-11T10:02:05.002Z,35.19
2018-09-11T10:04:35.197Z,36.02
2018-09-11T10:07:05.807Z,37.17
2018-09-11T10:09:36.392Z,38.08
2018-09-11T10:12:06.888Z,37.59
2018-09-11T10:14:37.430Z,37.43
2018-09-11T10:17:08.624Z,35.59
2018-09-11T10:19:39.384Z,37.71
2018-09-11T10:22:09.976Z,38.11
2018-09-11T10:24:40.723Z,34.72
2018-09-11T10:27:12.050Z,33.50
2018-09-11T10:29:42.652Z,31.60
2018-09-11T10:32:13.150Z,31.74
2018-09-11T10:34:43.816Z,30.43
2018-09-11T10:37:14.339Z,30.65
2018-09-11T10:39:44.918Z,33.01
2018-09-11T10:42:15.739Z,32.22
2018-09-11T10:44:46.308Z,30.53
2018-09-11T10:47:17.225Z,30.71
2018-09-11T10:49:47.808Z,29.40
2018-09-11T10:52:18.548Z,28.52
2018-09-11T10:54:49.276Z,28.18
2018-09-11T10:57:19.492Z,27.99
2018-09-11T10:59:50.034Z,27.85
2018-09-11T11:02:20.272Z,28.03
2018-09-11T11:04:50.972Z,28.13
2018-09-11T11:07:21.493Z,28.55
2018-09-11T11:09:52.029Z,28.40
2018-09-11T11:12:22.626Z,28.31
2018-09-11T11:14:57.339Z,28.13
2018-09-11T11:17:27.964Z,28.57
2018-09-11T11:19:58.598Z,28.98
2018-09-11T11:22:29.292Z,28.39
2018-09-11T11:25:00.535Z,28.43
2018-09-11T11:27:30.780Z,28.30
2018-09-11T11:30:01.374Z,28.56
2018-09-11T11:32:32.433Z,28.87
2018-09-11T11:35:03.266Z,29.16
2018-09-11T11:37:34.213Z,29.31
2018-09-11T11:40:05.536Z,29.72
2018-09-11T11:42:36.051Z,29.61
2018-09-11T11:45:07.325Z,29.45
2018-09-11T11:47:37.863Z,29.20
2018-09-11T11:50:12.230Z,28.84
2018-09-11T11:52:42.788Z,28.59
2018-09-11T11:55:13.422Z,28.82
2018-09-11T11:57:44.655Z,29.20
2018-09-11T12:00:15.284Z,28.85
2018-09-11T12:02:45.879Z,29.68
2018-09-11T12:05:16.709Z,29.86
2018-09-11T12:07:47.135Z,30.13
2018-09-11T12:10:17.615Z,29.59
2018-09-11T12:12:48.135Z,29.79
2018-09-11T12:15:18.375Z,30.19
2018-09-11T12:17:48.661Z,29.62
2018-09-11T12:20:18.950Z,29.28
2018-09-11T12:22:49.237Z,28.81
2018-09-11T12:25:19.630Z,29.11
2018-09-11T12:27:50.638Z,29.01
2018-09-11T12:30:21.472Z,29.42
2018-09-11T12:32:51.997Z,29.68
2018-09-11T12:35:22.302Z,29.81
2018-09-11T12:37:54.575Z,29.30
2018-09-11T12:40:25.080Z,29.66
2018-09-11T12:42:56.144Z,29.88
2018-09-11T12:45:26.789Z,29.42
2018-09-11T12:47:57.511Z,29.40
2018-09-11T12:50:27.904Z,29.41
2018-09-11T12:52:58.513Z,29.52
2018-09-11T12:55:29.217Z,29.92
2018-09-11T12:58:01.308Z,29.88
2018-09-11T13:00:33.358Z,29.80
2018-09-11T13:03:03.932Z,29.38
2018-09-11T13:05:36.568Z,29.83
2018-09-11T13:08:08.732Z,29.59
2018-09-11T13:10:39.424Z,29.76
2018-09-11T13:13:09.920Z,30.00
2018-09-11T13:15:43.052Z,29.72
2018-09-11T13:18:15.334Z,29.21
2018-09-11T13:20:46.519Z,29.13
2018-09-11T13:23:17.737Z,28.94
2018-09-11T13:25:48.334Z,28.90
2018-09-11T13:28:19.323Z,28.51
2018-09-11T13:30:52.784Z,28.41
2018-09-11T13:33:23.368Z,28.53
2018-09-11T13:35:54.215Z,28.65
2018-09-11T13:38:24.750Z,28.84
2018-09-11T13:40:55.460Z,28.76
2018-09-11T13:43:25.948Z,28.79
2018-09-11T13:45:56.545Z,28.71
2018-09-11T13:48:27.184Z,29.11
2018-09-11T13:50:57.701Z,29.20
2018-09-11T13:53:28.303Z,29.22
2018-09-11T13:55:59.003Z,29.26
2018-09-11T13:58:29.670Z,28.67
2018-09-11T14:01:00.182Z,28.66
2018-09-11T14:03:30.546Z,28.62
2018-09-11T14:06:01.861Z,28.50
2018-09-11T14:08:32.519Z,28.22
2018-09-11T14:11:03.345Z,28.58
2018-09-11T14:13:35.124Z,28.63
2018-09-11T14:16:05.629Z,28.52
2018-09-11T14:18:36.238Z,28.03
2018-09-11T14:21:07.410Z,28.32
2018-09-11T14:23:37.960Z,28.14
2018-09-11T14:26:09.089Z,28.08
2018-09-11T14:28:39.869Z,28.23
2018-09-11T14:31:10.162Z,28.24
2018-09-11T14:33:40.729Z,28.21
2018-09-11T14:36:11.902Z,28.10
2018-09-11T14:38:42.487Z,28.07
2018-09-11T14:41:12.997Z,28.19
2018-09-11T14:43:44.408Z,27.93
2018-09-11T14:46:16.108Z,27.93
2018-09-11T14:48:46.698Z,27.79
2018-09-11T14:51:17.222Z,27.78
2018-09-11T14:53:47.803Z,27.93
2018-09-11T14:56:19.168Z,27.78
2018-09-11T14:58:50.033Z,27.76
2018-09-11T15:01:20.530Z,27.63
2018-09-11T15:03:51.245Z,27.59
2018-09-11T15:06:22.346Z,27.50
2018-09-11T15:08:53.485Z,27.62
2018-09-11T15:11:24.508Z,27.61
2018-09-11T15:13:55.503Z,27.52
2018-09-11T15:16:26.326Z,27.60
2018-09-11T15:18:57.732Z,27.74
2018-09-11T15:21:28.503Z,27.85
2018-09-11T15:23:59.009Z,28.10
2018-09-11T15:26:30.819Z,28.12
2018-09-11T15:29:01.909Z,27.91
2018-09-11T15:31:37.326Z,28.11
2018-09-11T15:34:07.846Z,27.72
2018-09-11T15:36:38.080Z,27.46
2018-09-11T15:39:11.034Z,27.57
2018-09-11T15:41:41.564Z,27.60
2018-09-11T15:44:12.060Z,27.73
2018-09-11T15:46:42.492Z,28.10
2018-09-11T15:49:17.257Z,27.95
2018-09-11T15:51:47.942Z,27.77
2018-09-11T15:54:21.580Z,28.01
2018-09-11T15:56:52.517Z,27.87
2018-09-11T15:59:23.805Z,28.01
2018-09-11T16:04:35.671Z,28.08
2018-09-11T16:07:06.028Z,27.44
2018-09-11T16:09:36.765Z,27.23
2018-09-11T16:12:07.483Z,27.06
2018-09-11T16:14:38.539Z,26.91
2018-09-11T16:17:10.797Z,27.00
2018-09-11T16:19:41.551Z,26.78
2018-09-11T16:22:12.214Z,26.92
2018-09-11T16:24:42.950Z,27.14
2018-09-11T16:27:13.560Z,27.44
2018-09-11T16:29:44.160Z,27.19
2018-09-11T16:32:15.125Z,27.20
2018-09-11T16:34:47.394Z,26.99
2018-09-11T16:37:18.014Z,26.74
2018-09-11T16:39:48.603Z,26.75
2018-09-11T16:42:19.209Z,26.72
2018-09-11T16:44:50.237Z,26.81
2018-09-11T16:47:20.862Z,26.60
2018-09-11T16:49:51.577Z,26.58
2018-09-11T16:52:21.864Z,26.65
2018-09-11T16:54:53.272Z,26.66
2018-09-11T16:57:23.949Z,26.53
2018-09-11T16:59:54.303Z,26.44
2018-09-11T17:02:24.960Z,26.49
2018-09-11T17:04:55.626Z,26.38
2018-09-11T17:07:25.981Z,26.30
2018-09-11T17:09:56.695Z,26.23
2018-09-11T17:12:27.201Z,26.24
2018-09-11T17:15:00.755Z,26.16
2018-09-11T17:17:34.781Z,26.18
2018-09-11T17:20:05.420Z,26.19
2018-09-11T17:22:36.726Z,26.39
2018-09-11T17:25:07.536Z,26.37
2018-09-11T17:27:38.499Z,26.55
2018-09-11T17:30:09.906Z,26.45
2018-09-11T17:32:40.125Z,26.62
2018-09-11T17:35:10.597Z,26.48
2018-09-11T17:37:41.293Z,26.37
2018-09-11T17:40:11.836Z,26.36
2018-09-11T17:42:42.329Z,26.59
2018-09-11T17:45:13.009Z,26.31
2018-09-11T17:47:43.819Z,26.17
2018-09-11T17:50:14.271Z,26.38
2018-09-11T17:52:44.657Z,26.05
2018-09-11T17:55:17.072Z,25.94
2018-09-11T17:57:47.688Z,26.29
2018-09-11T18:00:18.353Z,26.90
2018-09-11T18:02:49.133Z,27.15
2018-09-11T18:05:19.754Z,27.20
2018-09-11T18:07:50.278Z,26.85
2018-09-11T18:10:20.845Z,26.58
2018-09-11T18:12:51.117Z,26.72
2018-09-11T18:15:22.482Z,26.49
2018-09-11T18:17:53.353Z,26.39
2018-09-11T18:20:23.967Z,26.10
2018-09-11T18:22:54.688Z,26.03
2018-09-11T18:25:24.922Z,25.76
2018-09-11T18:27:55.453Z,25.83
2018-09-11T18:30:25.964Z,25.79
2018-09-11T18:32:56.508Z,26.02
2018-09-11T18:35:27.434Z,26.18
2018-09-11T18:37:58.189Z,26.19
2018-09-11T18:40:28.698Z,26.15
2018-09-11T18:42:59.171Z,25.99
2018-09-11T18:45:30.683Z,25.78
2018-09-11T18:48:02.180Z,25.55
2018-09-11T18:50:32.989Z,25.44
2018-09-11T18:53:03.601Z,25.42
2018-09-11T18:55:34.048Z,25.07
2018-09-11T18:58:04.625Z,24.87
2018-09-11T19:00:35.044Z,24.84
2018-09-11T19:03:06.244Z,24.82
2018-09-11T19:05:36.765Z,24.79
2018-09-11T19:08:08.767Z,24.90
2018-09-11T19:10:38.992Z,25.29
2018-09-11T19:13:11.575Z,25.88
2018-09-11T19:15:42.177Z,26.01
2018-09-11T19:18:13.173Z,25.41
2018-09-11T19:20:43.944Z,24.99
2018-09-11T19:23:14.454Z,24.68
2018-09-11T19:25:44.696Z,24.56
2018-09-11T19:28:15.579Z,24.42
2018-09-11T19:30:47.333Z,24.36
2018-09-11T19:33:18.437Z,24.17
2018-09-11T19:35:48.952Z,24.17
2018-09-11T19:38:19.530Z,24.32
2018-09-11T19:40:50.018Z,24.34
2018-09-11T19:43:20.536Z,24.61
2018-09-11T19:45:51.122Z,24.31
2018-09-11T19:48:22.002Z,24.29
2018-09-11T19:50:52.761Z,24.19
2018-09-11T19:53:23.350Z,24.27
2018-09-11T19:55:53.839Z,24.36
2018-09-11T19:58:24.039Z,24.57
2018-09-11T20:00:54.898Z,24.53
2018-09-11T20:03:25.717Z,24.67
2018-09-11T20:05:55.940Z,24.72
2018-09-11T20:08:26.476Z,24.48
2018-09-11T20:10:57.760Z,24.59
2018-09-11T20:13:28.315Z,24.75
2018-09-11T20:15:58.925Z,24.65
2018-09-11T20:18:29.804Z,24.44
2018-09-11T20:21:00.364Z,24.80
2018-09-11T20:23:38.017Z,24.62
2018-09-11T20:26:08.238Z,24.86
2018-09-11T20:28:40.475Z,24.58
2018-09-11T20:31:13.149Z,24.69
2018-09-11T20:33:43.659Z,24.67
2018-09-11T20:36:14.392Z,24.24
2018-09-11T20:38:46.270Z,24.23
2018-09-11T20:41:17.481Z,24.24
2018-09-11T20:43:56.722Z,23.95
2018-09-11T20:46:29.784Z,23.84
2018-09-11T20:49:00.625Z,23.84
2018-09-11T20:51:31.240Z,23.98
2018-09-11T20:54:05.809Z,24.03
2018-09-11T20:56:37.825Z,23.98
2018-09-11T20:59:10.242Z,23.90
2018-09-11T21:01:42.977Z,23.93
2018-09-11T21:04:15.655Z,23.94
2018-09-11T21:06:48.267Z,23.73
2018-09-11T21:09:18.840Z,23.53
2018-09-11T21:11:49.503Z,23.78
2018-09-11T21:14:19.745Z,23.76
2018-09-11T21:16:51.120Z,23.79
2018-09-11T21:19:21.666Z,24.09
2018-09-11T21:21:52.400Z,24.35
2018-09-11T21:24:22.930Z,24.81
2018-09-11T21:26:53.600Z,24.56
2018-09-11T21:29:24.971Z,24.05
2018-09-11T21:31:57.906Z,23.82
2018-09-11T21:34:30.923Z,23.58
2018-09-11T21:37:02.476Z,23.50
2018-09-11T21:39:33.266Z,23.41
2018-09-11T21:42:03.875Z,23.19
2018-09-11T21:44:34.539Z,23.12
2018-09-11T21:47:05.642Z,23.33
2018-09-11T21:49:36.144Z,23.44
2018-09-11T21:52:06.930Z,23.58
2018-09-11T21:54:37.881Z,24.26
2018-09-11T21:57:09.176Z,24.68
2018-09-11T21:59:40.595Z,24.10
2018-09-11T22:02:11.875Z,23.92
2018-09-11T22:04:42.152Z,23.35
2018-09-11T22:07:13.620Z,23.75
2018-09-11T22:09:45.383Z,23.73
2018-09-11T22:12:16.196Z,23.51
2018-09-11T22:14:46.841Z,23.55
2018-09-11T22:17:17.419Z,23.60
2018-09-11T22:19:47.956Z,23.64
2018-09-11T22:22:19.391Z,23.73
2018-09-11T22:24:49.670Z,23.45
2018-09-11T22:27:21.457Z,23.87
2018-09-11T22:29:53.233Z,23.59
2018-09-11T22:32:28.220Z,23.59
2018-09-11T22:34:59.643Z,23.70
2018-09-11T22:37:31.284Z,23.36
2018-09-11T22:40:01.550Z,23.72
2018-09-11T22:42:32.342Z,23.82
2018-09-11T22:45:05.357Z,23.57
2018-09-11T22:47:36.160Z,23.14
2018-09-11T22:50:06.813Z,22.89
2018-09-11T22:52:37.534Z,22.73
2018-09-11T22:55:10.032Z,22.44
2018-09-11T22:57:40.453Z,22.15
2018-09-11T23:00:10.676Z,21.89
2018-09-11T23:02:41.314Z,21.58
2018-09-11T23:05:13.012Z,21.42
2018-09-11T23:07:43.279Z,21.33
2018-09-11T23:10:13.800Z,21.33
2018-09-11T23:12:44.569Z,21.33
2018-09-11T23:15:15.311Z,21.34
2018-09-11T23:17:45.556Z,21.26
2018-09-11T23:20:16.153Z,21.22
2018-09-11T23:22:47.109Z,21.20
2018-09-11T23:25:17.348Z,21.22
2018-09-11T23:27:47.848Z,21.16
2018-09-11T23:30:18.539Z,21.03
2018-09-11T23:32:48.789Z,21.02
2018-09-11T23:35:19.056Z,20.98
2018-09-11T23:37:49.447Z,21.07
2018-09-11T23:40:20.304Z,21.83
2018-09-11T23:42:50.856Z,22.26
2018-09-11T23:45:21.520Z,22.66
2018-09-11T23:47:51.799Z,22.89
2018-09-11T23:50:22.236Z,22.78
2018-09-11T23:52:52.485Z,22.71
2018-09-11T23:55:22.701Z,21.94
2018-09-11T23:57:53.523Z,22.29
